Time;durP1;ratioP1;P1;durP2;ratioP2;P2;SDS_P1;SDS_P2;PMS_P1;PMS_P2;Temp;Humidity;BMP_temperature;BMP_pressure;BME280_temperature;BME280_humidity;BME280_pressure;Samples;Min_cycle;Max_cycle;Signal;HPM_P1;HPM_P2
2023/10/28 10:45:54;;;;;;;4.93;4.10;;;10.90;99.90;;;;;;5805387;22;28782824;-83
2023/10/28 13:57:41;;;;;;;12.17;6.50;;;9.00;99.90;;;;;;6335187;22;20203;-83
2023/10/28 14:01:29;;;;;;;16.30;6.40;;;9.10;99.90;;;;;;6160969;23;20506;-82
2023/10/28 16:03:24;;;;;;;;;;;;;;;;;;;;;
2023/10/28 17:14:25;;;;;;;12.47;8.20;;;8.70;99.90;;;;;;5996955;23;20682;-83
2023/10/28 17:26:55;;;;;;;;;;;;;;;;;;;;;
2023/10/28 17:30:12;;;;;;;14.47;9.73;;;8.70;99.90;;;;;;5871475;24;20191;-83
2023/10/28 17:52:03;;;;;;;;;;;;;;;;;;;;;
2023/10/28 17:56:09;;;;;;;14.77;10.00;;;8.70;99.90;;;;;;6104409;23;20184;-83
2023/10/28 18:17:02;;;;;;;17.23;11.03;;;8.70;99.90;;;;;;6191551;22;20241;-85
2023/10/28 18:20:12;;;;;;;17.50;11.73;;;8.70;99.90;;;;;;6199903;23;20207;-83
2023/10/28 18:28:28;;;;;;;17.83;12.00;;;8.60;99.90;;;;;;5904163;24;20169;-81
2023/10/28 18:33:17;;;;;;;;;;;;;;;;;;;;;
2023/10/28 18:37:15;;;;;;;;;;;;;;;;;;;;;
2023/10/28 19:10:42;;;;;;;20.07;13.47;;;8.70;99.90;;;;;;6205377;23;20217;-81
2023/10/28 19:14:20;;;;;;;24.03;14.27;;;8.80;99.90;;;;;;6215476;23;20235;-84
2023/10/28 19:17:32;;;;;;;20.73;13.73;;;8.70;99.90;;;;;;6073568;23;20184;-83
2023/10/28 19:33:55;;;;;;;24.33;14.50;;;8.70;99.90;;;;;;5898781;24;20278;-83
2023/10/28 19:38:12;;;;;;;25.60;13.83;;;8.70;99.90;;;;;;5926382;24;20202;-84
2023/10/28 19:41:33;;;;;;;25.23;14.77;;;8.70;99.90;;;;;;5753563;24;20186;-85
2023/10/28 19:44:44;;;;;;;25.30;15.53;;;8.70;99.90;;;;;;5746996;24;20252;-80
2023/10/28 20:06:11;;;;;;;26.63;15.57;;;8.60;99.90;;;;;;4200694;27;25717326;-83
2023/10/28 20:08:58;;;;;;;26.77;15.73;;;8.40;99.90;;;;;;5085182;28;20643;-83
2023/10/28 20:12:32;;;;;;;24.70;16.13;;;8.60;99.90;;;;;;4996680;28;20204;-83
2023/10/28 20:19:55;;;;;;;26.93;16.93;;;8.50;99.90;;;;;;5007466;28;20666;-84
2023/10/28 20:27:29;;;;;;;27.87;16.37;;;8.60;99.90;;;;;;4793117;29;20344;-81
2023/10/28 20:31:26;;;;;;;;;;;;;;;;;;;;;
2023/10/28 20:35:05;;;;;;;29.47;17.93;;;8.60;99.90;;;;;;4169105;27;25516961;-82
2023/10/28 20:37:46;;;;;;;33.43;17.73;;;8.60;99.90;;;;;;4931116;28;20218;-81
2023/10/28 20:41:29;;;;;;;27.30;17.20;;;8.50;99.90;;;;;;4904259;29;20213;-81
2023/10/28 20:45:22;;;;;;;28.93;17.23;;;8.60;99.90;;;;;;4809395;29;20198;-82
2023/10/28 20:48:27;;;;;;;;;;;;;;;;;;;;;
2023/10/28 20:51:35;;;;;;;26.97;17.13;;;8.60;99.90;;;;;;4809255;29;20214;-78
2023/10/28 20:54:03;;;;;;;30.13;17.77;;;8.60;99.90;;;;;;4815358;29;20252;-76
2023/10/28 20:56:30;;;;;;;31.90;18.73;;;8.60;99.90;;;;;;4817022;29;20735;-76
2023/10/28 20:59:00;;;;;;;30.77;18.63;;;8.60;99.90;;;;;;4816030;29;20218;-75
2023/10/28 21:01:28;;;;;;;32.93;19.67;;;8.60;99.90;;;;;;4814900;29;20392;-77
2023/10/28 21:03:57;;;;;;;32.07;18.83;;;8.70;99.90;;;;;;4816917;29;20287;-74
2023/10/28 21:06:25;;;;;;;34.30;19.87;;;8.60;99.90;;;;;;4815938;29;20781;-76
2023/10/28 21:08:54;;;;;;;33.10;19.60;;;8.60;99.90;;;;;;4815396;29;20259;-77
2023/10/28 21:11:22;;;;;;;39.97;20.60;;;8.70;99.90;;;;;;4817474;29;20207;-77
2023/10/28 21:13:49;;;;;;;35.20;20.23;;;8.60;99.90;;;;;;4847523;29;20745;-77
2023/10/28 21:16:16;;;;;;;32.00;19.47;;;8.70;99.90;;;;;;4909795;29;20698;-76
2023/10/28 21:18:44;;;;;;;44.03;21.40;;;8.80;99.90;;;;;;4960283;28;20236;-76
2023/10/28 21:21:12;;;;;;;33.17;20.60;;;8.70;99.90;;;;;;5035813;28;20643;-76
2023/10/28 21:23:40;;;;;;;35.33;19.50;;;8.90;99.90;;;;;;5049014;28;20274;-76
2023/10/28 21:26:08;;;;;;;30.43;19.13;;;8.80;99.90;;;;;;5049945;28;20207;-77
2023/10/28 21:28:35;;;;;;;33.57;19.33;;;8.90;99.90;;;;;;5066040;28;20257;-74
2023/10/28 21:31:04;;;;;;;31.83;19.73;;;8.80;99.90;;;;;;5067512;28;20608;-77
2023/10/28 21:33:32;;;;;;;31.63;18.57;;;8.80;99.90;;;;;;5067718;28;20287;-76
2023/10/28 21:35:59;;;;;;;33.70;19.53;;;8.90;99.90;;;;;;5066652;28;20258;-76
2023/10/28 21:38:27;;;;;;;32.30;18.77;;;8.90;99.90;;;;;;5065956;28;20293;-76
2023/10/28 21:40:54;;;;;;;35.80;19.50;;;9.00;99.90;;;;;;5067337;28;20201;-76
2023/10/28 21:43:24;;;;;;;32.80;19.40;;;8.90;99.90;;;;;;5064447;28;20572;-77
2023/10/28 21:46:02;;;;;;;33.67;19.87;;;8.90;99.90;;;;;;5052391;28;20198;-75
2023/10/28 21:48:31;;;;;;;34.93;19.33;;;9.00;99.90;;;;;;5054096;28;20596;-77
2023/10/28 21:50:59;;;;;;;34.53;20.33;;;9.00;99.90;;;;;;5018896;28;20665;-75
2023/10/28 21:53:34;;;;;;;32.33;19.77;;;9.00;99.90;;;;;;5035970;28;20209;-78
2023/10/28 21:56:05;;;;;;;37.07;20.13;;;9.20;99.90;;;;;;5035055;28;20229;-77
2023/10/28 21:58:40;;;;;;;37.13;19.43;;;9.10;99.90;;;;;;5052625;28;20205;-77
2023/10/28 22:01:17;;;;;;;33.53;20.20;;;9.20;99.90;;;;;;5053112;28;20191;-77
2023/10/28 22:03:56;;;;;;;33.87;19.13;;;9.10;99.90;;;;;;5033743;28;20309;-80
2023/10/28 22:06:26;;;;;;;34.30;19.30;;;9.20;99.90;;;;;;5035047;28;20220;-76
2023/10/28 22:09:10;;;;;;;30.87;18.70;;;9.10;99.90;;;;;;5037510;28;20279;-77
2023/10/28 22:11:47;;;;;;;33.27;20.83;;;9.10;99.90;;;;;;5052895;28;20273;-76
2023/10/28 22:14:15;;;;;;;33.67;20.17;;;9.10;99.90;;;;;;5052030;28;20220;-80
2023/10/28 22:16:45;;;;;;;31.60;19.03;;;9.20;99.90;;;;;;5053909;28;20202;-80
2023/10/28 22:19:18;;;;;;;33.30;20.00;;;9.10;99.90;;;;;;5053575;28;20218;-80
2023/10/28 22:21:50;;;;;;;33.60;19.90;;;9.20;99.90;;;;;;5053505;28;20197;-80
2023/10/28 22:24:17;;;;;;;34.37;18.97;;;9.20;99.90;;;;;;5053852;28;20195;-75
2023/10/28 22:26:48;;;;;;;32.30;19.47;;;9.20;99.90;;;;;;5053550;28;20183;-74
2023/10/28 22:29:32;;;;;;;29.93;18.27;;;9.30;99.90;;;;;;5035265;28;20189;-81
2023/10/28 22:32:17;;;;;;;29.90;18.03;;;9.20;99.90;;;;;;5033744;28;20792;-81
2023/10/28 22:34:49;;;;;;;41.17;19.27;;;9.20;99.90;;;;;;5031301;28;20317;-79
2023/10/28 22:37:20;;;;;;;28.87;17.50;;;9.20;99.90;;;;;;5007785;28;20222;-77
2023/10/28 22:39:58;;;;;;;37.83;17.53;;;9.20;99.90;;;;;;5032872;28;20195;-77
2023/10/28 22:42:30;;;;;;;31.47;17.70;;;9.10;99.90;;;;;;5033090;28;20278;-74
2023/10/28 22:45:07;;;;;;;31.00;18.07;;;9.10;99.90;;;;;;5030991;28;20190;-81
2023/10/28 22:47:45;;;;;;;28.73;17.37;;;9.00;99.90;;;;;;5033043;28;20308;-80
2023/10/28 22:50:14;;;;;;;32.20;18.50;;;9.00;99.90;;;;;;5030158;28;20206;-76
2023/10/28 22:52:47;;;;;;;33.07;17.60;;;9.00;99.90;;;;;;5014513;28;20219;-79
2023/10/28 22:55:20;;;;;;;30.10;17.40;;;9.00;99.90;;;;;;5031969;28;20183;-79
2023/10/28 22:57:53;;;;;;;33.60;17.83;;;9.00;99.90;;;;;;5032247;28;20187;-76
2023/10/28 23:00:26;;;;;;;33.03;18.27;;;9.10;99.90;;;;;;5032908;28;20170;-82
2023/10/28 23:03:17;;;;;;;35.80;19.17;;;9.10;99.90;;;;;;5032195;28;20282;-79
2023/10/28 23:05:46;;;;;;;37.37;18.90;;;9.00;99.90;;;;;;5015386;28;20205;-76
2023/10/28 23:08:19;;;;;;;29.53;17.10;;;9.00;99.90;;;;;;5031261;28;20198;-77
2023/10/28 23:10:58;;;;;;;36.20;18.60;;;9.00;99.90;;;;;;5031096;28;20218;-76
2023/10/28 23:13:28;;;;;;;30.47;17.23;;;8.90;99.90;;;;;;5013887;28;20629;-80
2023/10/28 23:16:18;;;;;;;29.53;17.33;;;8.90;99.90;;;;;;5013972;28;20592;-78
2023/10/28 23:18:57;;;;;;;31.57;17.60;;;9.00;99.90;;;;;;5032519;28;20221;-79
2023/10/28 23:21:30;;;;;;;29.60;17.67;;;9.00;99.90;;;;;;5032796;28;20217;-83
2023/10/28 23:24:01;;;;;;;30.63;17.23;;;8.90;99.90;;;;;;5015220;28;20217;-81
2023/10/28 23:26:31;;;;;;;31.57;17.60;;;8.90;99.90;;;;;;5014103;28;20657;-76
2023/10/28 23:28:58;;;;;;;26.03;16.77;;;9.00;99.90;;;;;;5032515;28;20195;-77
2023/10/28 23:31:28;;;;;;;26.90;16.57;;;9.00;99.90;;;;;;5032344;28;20223;-78
2023/10/28 23:33:56;;;;;;;29.30;17.13;;;9.00;99.90;;;;;;4997245;28;20292;-77
2023/10/28 23:36:26;;;;;;;32.73;16.43;;;8.90;99.90;;;;;;5031378;28;20204;-77
2023/10/28 23:38:55;;;;;;;25.53;16.07;;;9.00;99.90;;;;;;5031948;28;20191;-75
2023/10/28 23:41:25;;;;;;;29.13;16.70;;;9.00;99.90;;;;;;5030801;28;20202;-77
2023/10/28 23:44:07;;;;;;;28.37;16.67;;;8.90;99.90;;;;;;5032254;28;20178;-79
2023/10/28 23:46:37;;;;;;;35.87;17.80;;;8.90;99.90;;;;;;5030780;28;20205;-78
2023/10/28 23:49:35;;;;;;;28.77;17.53;;;8.90;99.90;;;;;;5032835;28;20629;-81
2023/10/28 23:52:11;;;;;;;30.37;17.40;;;8.80;99.90;;;;;;5030246;28;20713;-78
2023/10/28 23:54:45;;;;;;;33.27;17.50;;;8.90;99.90;;;;;;5031770;28;20222;-82
2023/10/28 23:57:30;;;;;;;32.70;18.00;;;9.00;99.90;;;;;;5030872;28;20194;-81
